Time;durP1;ratioP1;P1;durP2;ratioP2;P2;SDS_P1;SDS_P2;PMS_P1;PMS_P2;Temp;Humidity;BMP_temperature;BMP_pressure;BME280_temperature;BME280_humidity;BME280_pressure;Samples;Min_cycle;Max_cycle;Signal;HPM_P1;HPM_P2
2023/12/12 00:01:57;;;;;;;14.43;3.70;;;;;;;;;;4987432;28;20255;-81
2023/12/12 00:04:23;;;;;;;14.30;3.47;;;;;;;;;;4972474;28;20199;-81
2023/12/12 00:06:49;;;;;;;15.67;3.50;;;;;;;;;;4971680;28;20195;-81
2023/12/12 00:09:16;;;;;;;12.07;3.43;;;;;;;;;;4973622;28;20207;-80
2023/12/12 00:11:42;;;;;;;11.40;3.10;;;;;;;;;;4989418;28;20203;-80
2023/12/12 00:14:08;;;;;;;14.57;3.60;;;;;;;;;;4989102;28;20188;-80
2023/12/12 00:16:34;;;;;;;9.67;3.30;;;;;;;;;;4957607;28;20266;-80
2023/12/12 00:19:01;;;;;;;13.43;3.80;;;;;;;;;;4989613;28;20208;-80
2023/12/12 00:21:27;;;;;;;11.83;3.50;;;;;;;;;;4990154;28;20788;-80
2023/12/12 00:23:53;;;;;;;10.80;3.60;;;;;;;;;;4989946;28;20192;-81
2023/12/12 00:26:19;;;;;;;12.20;3.70;;;;;;;;;;4986886;28;20188;-80
2023/12/12 00:28:45;;;;;;;13.80;3.80;;;;;;;;;;4987943;28;20211;-81
2023/12/12 00:31:12;;;;;;;15.30;3.80;;;;;;;;;;4988390;28;20191;-81
2023/12/12 00:33:38;;;;;;;14.20;3.70;;;;;;;;;;4988175;28;20562;-81
2023/12/12 00:36:04;;;;;;;14.00;3.50;;;;;;;;;;4971763;28;20191;-81
2023/12/12 00:38:31;;;;;;;11.63;2.83;;;;;;;;;;4988290;28;20314;-81
2023/12/12 00:40:57;;;;;;;11.07;3.10;;;;;;;;;;4989734;28;20172;-81
2023/12/12 00:43:24;;;;;;;11.13;3.33;;;;;;;;;;4987446;28;20275;-81
2023/12/12 00:45:50;;;;;;;14.30;4.40;;;;;;;;;;4956905;28;20203;-81
2023/12/12 00:48:17;;;;;;;12.43;3.80;;;;;;;;;;4971951;28;20184;-81
2023/12/12 00:50:43;;;;;;;10.73;3.63;;;;;;;;;;4974908;28;20181;-81
2023/12/12 00:53:10;;;;;;;11.47;3.53;;;;;;;;;;4969972;28;20279;-81
2023/12/12 00:55:36;;;;;;;8.60;3.17;;;;;;;;;;4964773;28;20188;-81
2023/12/12 00:58:02;;;;;;;11.63;3.20;;;;;;;;;;4987171;28;20188;-81
2023/12/12 01:00:28;;;;;;;13.43;3.40;;;;;;;;;;4978217;28;20255;-80
2023/12/12 01:02:55;;;;;;;10.03;3.47;;;;;;;;;;4972659;28;20196;-80
2023/12/12 01:05:21;;;;;;;11.87;3.23;;;;;;;;;;4989138;28;20188;-81
2023/12/12 01:07:47;;;;;;;11.87;3.23;;;;;;;;;;4956275;28;20219;-81
2023/12/12 01:10:13;;;;;;;12.00;3.10;;;;;;;;;;4988796;28;20561;-81
2023/12/12 01:12:39;;;;;;;13.87;3.57;;;;;;;;;;4986184;28;20204;-81
2023/12/12 01:15:06;;;;;;;15.97;3.50;;;;;;;;;;4985114;28;20641;-81
2023/12/12 01:17:32;;;;;;;11.37;3.23;;;;;;;;;;4987487;28;20233;-81
2023/12/12 01:19:58;;;;;;;12.63;3.60;;;;;;;;;;4989387;28;20238;-81
2023/12/12 01:22:24;;;;;;;15.00;3.53;;;;;;;;;;4985102;28;20189;-81
2023/12/12 01:24:50;;;;;;;13.47;3.40;;;;;;;;;;4967818;28;20188;-81
2023/12/12 01:27:16;;;;;;;13.70;3.37;;;;;;;;;;4985899;28;20599;-81
2023/12/12 01:29:42;;;;;;;13.17;3.30;;;;;;;;;;4972458;28;20214;-81
2023/12/12 01:32:09;;;;;;;11.40;3.60;;;;;;;;;;4986868;28;20692;-81
2023/12/12 01:34:35;;;;;;;10.70;3.30;;;;;;;;;;4988633;28;20212;-81
2023/12/12 01:37:01;;;;;;;12.63;3.83;;;;;;;;;;4988923;28;20319;-81
2023/12/12 01:39:27;;;;;;;16.80;3.50;;;;;;;;;;4988753;28;20207;-81
2023/12/12 01:41:53;;;;;;;12.80;3.57;;;;;;;;;;4991272;28;20242;-81
2023/12/12 01:44:19;;;;;;;11.97;3.60;;;;;;;;;;4992136;28;20672;-81
2023/12/12 01:46:47;;;;;;;10.50;3.70;;;;;;;;;;4975987;28;20215;-81
2023/12/12 01:49:13;;;;;;;9.93;3.10;;;;;;;;;;4975615;28;20274;-81
2023/12/12 01:51:39;;;;;;;15.57;3.83;;;;;;;;;;4975979;28;20216;-80
2023/12/12 01:54:06;;;;;;;13.13;3.30;;;;;;;;;;4976235;28;20545;-81
2023/12/12 01:56:33;;;;;;;13.30;3.23;;;;;;;;;;4991334;28;20180;-81
2023/12/12 01:59:00;;;;;;;18.27;6.30;;;;;;;;;;4975739;28;20208;-81
2023/12/12 02:01:27;;;;;;;11.63;3.97;;;;;;;;;;4992205;28;20647;-81
2023/12/12 02:03:54;;;;;;;12.13;3.57;;;;;;;;;;4976015;28;20292;-80
2023/12/12 02:06:22;;;;;;;10.30;3.27;;;;;;;;;;4976146;28;20619;-81
2023/12/12 02:08:52;;;;;;;15.23;3.77;;;;;;;;;;4958786;28;20216;-81
2023/12/12 02:11:19;;;;;;;15.50;3.50;;;;;;;;;;4975358;28;20618;-81
2023/12/12 02:13:46;;;;;;;11.13;3.30;;;;;;;;;;4974167;28;20247;-81
2023/12/12 02:16:13;;;;;;;13.10;3.27;;;;;;;;;;4989421;28;20207;-80
2023/12/12 02:18:39;;;;;;;16.30;4.40;;;;;;;;;;4975020;28;20278;-81
2023/12/12 02:21:06;;;;;;;12.73;3.50;;;;;;;;;;4975594;28;20620;-81
2023/12/12 02:23:32;;;;;;;12.03;3.40;;;;;;;;;;4990892;28;20188;-80
2023/12/12 02:26:02;;;;;;;11.90;3.40;;;;;;;;;;4990648;28;20195;-80
2023/12/12 02:28:28;;;;;;;11.10;3.67;;;;;;;;;;4971740;28;20215;-80
2023/12/12 02:30:55;;;;;;;13.47;3.53;;;;;;;;;;4969400;28;20188;-81
2023/12/12 02:33:21;;;;;;;15.90;3.93;;;;;;;;;;4990763;28;20215;-80
2023/12/12 02:35:47;;;;;;;14.50;3.80;;;;;;;;;;4975212;28;20188;-80
2023/12/12 02:38:13;;;;;;;14.27;3.47;;;;;;;;;;4975135;28;20192;-80
2023/12/12 02:40:40;;;;;;;15.13;3.23;;;;;;;;;;4974660;28;20180;-80
2023/12/12 02:43:06;;;;;;;12.40;3.47;;;;;;;;;;4958743;28;20184;-81
2023/12/12 02:45:32;;;;;;;12.50;3.27;;;;;;;;;;4974758;28;20219;-81
2023/12/12 02:47:58;;;;;;;11.33;3.20;;;;;;;;;;4975080;28;20682;-81
2023/12/12 02:50:24;;;;;;;10.90;3.10;;;;;;;;;;4990067;28;20286;-81
2023/12/12 02:52:50;;;;;;;12.77;3.43;;;;;;;;;;4987509;28;20216;-81
2023/12/12 02:55:16;;;;;;;11.67;3.30;;;;;;;;;;4973072;28;20231;-81
2023/12/12 02:57:43;;;;;;;12.40;3.17;;;;;;;;;;4991813;28;20192;-80
2023/12/12 03:00:09;;;;;;;12.10;3.50;;;;;;;;;;4974606;28;20289;-80
2023/12/12 03:02:35;;;;;;;14.17;3.53;;;;;;;;;;4983784;28;20246;-80
2023/12/12 03:05:03;;;;;;;11.40;3.97;;;;;;;;;;4975048;28;20192;-80
2023/12/12 03:07:29;;;;;;;12.13;3.20;;;;;;;;;;4975156;28;20298;-81
2023/12/12 03:09:56;;;;;;;10.83;3.57;;;;;;;;;;4975292;28;20231;-80
2023/12/12 03:12:22;;;;;;;13.87;3.77;;;;;;;;;;4991946;28;20742;-80
2023/12/12 03:14:48;;;;;;;11.87;3.70;;;;;;;;;;4973942;28;20188;-81
2023/12/12 03:17:14;;;;;;;11.00;3.30;;;;;;;;;;4992710;28;20679;-80
2023/12/12 03:19:40;;;;;;;13.50;3.63;;;;;;;;;;4989534;28;20196;-80
2023/12/12 03:22:06;;;;;;;13.20;3.80;;;;;;;;;;4972409;28;20191;-80
2023/12/12 03:24:32;;;;;;;11.97;3.50;;;;;;;;;;4991231;28;20296;-80
2023/12/12 03:26:59;;;;;;;12.57;3.37;;;;;;;;;;4990884;28;20279;-81
2023/12/12 03:29:25;;;;;;;14.70;3.63;;;;;;;;;;4990138;28;20450;-80
2023/12/12 03:31:51;;;;;;;10.23;3.20;;;;;;;;;;4974643;28;20215;-80
2023/12/12 03:34:17;;;;;;;12.60;3.33;;;;;;;;;;4974698;28;20202;-81
2023/12/12 03:36:44;;;;;;;11.70;3.03;;;;;;;;;;4974379;28;20184;-80
2023/12/12 03:39:10;;;;;;;12.20;3.33;;;;;;;;;;4957914;28;20246;-81
2023/12/12 03:41:36;;;;;;;11.90;3.27;;;;;;;;;;4973818;28;20188;-81
2023/12/12 03:44:02;;;;;;;14.37;3.53;;;;;;;;;;4990582;28;20202;-80
2023/12/12 03:46:28;;;;;;;8.93;3.17;;;;;;;;;;4974301;28;20192;-80
2023/12/12 03:48:55;;;;;;;14.37;3.37;;;;;;;;;;4990652;28;20407;-81
2023/12/12 03:51:21;;;;;;;12.07;3.67;;;;;;;;;;4974419;28;20214;-81
2023/12/12 03:53:47;;;;;;;10.73;3.40;;;;;;;;;;4992250;28;20208;-81
2023/12/12 03:56:14;;;;;;;11.50;3.20;;;;;;;;;;4997347;28;20184;-81
2023/12/12 03:58:40;;;;;;;11.33;4.13;;;;;;;;;;4997224;28;20215;-81
2023/12/12 04:01:06;;;;;;;12.37;3.70;;;;;;;;;;4979855;28;20559;-80
2023/12/12 04:03:33;;;;;;;11.50;3.63;;;;;;;;;;4995663;28;20191;-81
2023/12/12 04:06:02;;;;;;;14.23;3.40;;;;;;;;;;4992573;28;20214;-81
2023/12/12 04:08:28;;;;;;;15.30;3.50;;;;;;;;;;4975123;28;20212;-80
2023/12/12 04:10:54;;;;;;;9.93;3.13;;;;;;;;;;4973968;28;20186;-81
2023/12/12 04:13:20;;;;;;;10.33;3.17;;;;;;;;;;4973840;28;20686;-81
2023/12/12 04:15:46;;;;;;;12.43;3.20;;;;;;;;;;4974313;28;20195;-80
2023/12/12 04:18:12;;;;;;;11.83;3.30;;;;;;;;;;4990453;28;20273;-80
2023/12/12 04:20:38;;;;;;;14.70;3.67;;;;;;;;;;4974001;28;20238;-80
2023/12/12 04:23:05;;;;;;;14.17;3.47;;;;;;;;;;4988968;28;20291;-80
2023/12/12 04:25:32;;;;;;;13.27;3.63;;;;;;;;;;4990829;28;20207;-81
2023/12/12 04:27:59;;;;;;;12.13;3.00;;;;;;;;;;4972277;28;20204;-80
2023/12/12 04:30:25;;;;;;;11.60;3.37;;;;;;;;;;4974049;28;20207;-80
2023/12/12 04:32:52;;;;;;;13.33;3.63;;;;;;;;;;4990240;28;20259;-80
2023/12/12 04:35:19;;;;;;;12.90;3.43;;;;;;;;;;4989699;28;20683;-80
2023/12/12 04:37:46;;;;;;;12.03;3.47;;;;;;;;;;4959477;28;20184;-81
2023/12/12 04:40:12;;;;;;;11.83;3.63;;;;;;;;;;4960264;28;20670;-80
2023/12/12 04:42:38;;;;;;;10.07;3.50;;;;;;;;;;4973400;28;20190;-81
2023/12/12 04:45:05;;;;;;;14.50;3.30;;;;;;;;;;4990054;28;20208;-81
2023/12/12 04:47:31;;;;;;;12.57;3.50;;;;;;;;;;4973562;28;20191;-81
2023/12/12 04:49:57;;;;;;;12.13;3.77;;;;;;;;;;4973753;28;20218;-80
2023/12/12 04:52:23;;;;;;;12.37;3.30;;;;;;;;;;4973492;28;20208;-81
2023/12/12 04:54:49;;;;;;;11.63;3.40;;;;;;;;;;4974444;28;20664;-80
2023/12/12 04:57:16;;;;;;;15.40;3.50;;;;;;;;;;4972788;28;20211;-80
2023/12/12 04:59:42;;;;;;;11.30;3.20;;;;;;;;;;4989368;28;20199;-80
2023/12/12 05:02:08;;;;;;;11.07;3.27;;;;;;;;;;4990967;28;20191;-81
2023/12/12 05:04:36;;;;;;;12.00;3.20;;;;;;;;;;4973322;28;20204;-81
2023/12/12 05:07:02;;;;;;;11.80;3.43;;;;;;;;;;4973395;28;20290;-81
2023/12/12 05:09:28;;;;;;;14.60;3.78;;;;;;;;;;4988754;28;20428;-81
2023/12/12 05:11:54;;;;;;;11.70;3.40;;;;;;;;;;4988518;28;20291;-80
2023/12/12 05:14:20;;;;;;;10.30;3.40;;;;;;;;;;4974616;28;20203;-80
2023/12/12 05:16:46;;;;;;;13.43;3.67;;;;;;;;;;4977029;28;20188;-81
2023/12/12 05:19:13;;;;;;;11.33;3.63;;;;;;;;;;4992811;28;20270;-81
2023/12/12 05:21:39;;;;;;;12.77;3.70;;;;;;;;;;4976764;28;20195;-81
2023/12/12 05:24:06;;;;;;;13.33;3.73;;;;;;;;;;4993735;28;20194;-81
2023/12/12 05:26:32;;;;;;;10.00;3.10;;;;;;;;;;4976844;28;20191;-81
2023/12/12 05:28:58;;;;;;;13.77;3.57;;;;;;;;;;4976521;28;20215;-81
2023/12/12 05:31:24;;;;;;;9.67;3.27;;;;;;;;;;4976799;28;20200;-81
2023/12/12 05:33:51;;;;;;;11.47;3.57;;;;;;;;;;4992660;28;20219;-80
2023/12/12 05:36:17;;;;;;;12.13;3.37;;;;;;;;;;4992869;28;20187;-81
2023/12/12 05:38:43;;;;;;;12.03;3.60;;;;;;;;;;4977145;28;20212;-81
2023/12/12 05:41:09;;;;;;;8.67;3.20;;;;;;;;;;4992784;28;20235;-81
2023/12/12 05:43:35;;;;;;;11.93;3.30;;;;;;;;;;4976192;28;20227;-81
2023/12/12 05:46:02;;;;;;;12.20;3.87;;;;;;;;;;4972992;28;20189;-81
2023/12/12 05:48:29;;;;;;;9.13;2.90;;;;;;;;;;4972083;28;20211;-81
2023/12/12 05:50:56;;;;;;;10.73;3.60;;;;;;;;;;4975916;28;20200;-81
2023/12/12 05:53:22;;;;;;;9.33;3.60;;;;;;;;;;4991575;28;20208;-81
2023/12/12 05:55:48;;;;;;;13.13;3.63;;;;;;;;;;4975248;28;20606;-81
2023/12/12 05:58:14;;;;;;;12.60;3.30;;;;;;;;;;4975683;28;20172;-81
2023/12/12 06:00:40;;;;;;;15.77;3.93;;;;;;;;;;4976682;28;20582;-81
2023/12/12 06:03:08;;;;;;;12.07;3.80;;;;;;;;;;4977910;28;20279;-81
2023/12/12 06:05:34;;;;;;;14.27;3.63;;;;;;;;;;4976925;28;20539;-80
2023/12/12 06:08:01;;;;;;;14.10;3.90;;;;;;;;;;4976356;28;20194;-80
2023/12/12 06:10:27;;;;;;;10.57;3.80;;;;;;;;;;4991944;28;20208;-81
2023/12/12 06:12:53;;;;;;;11.10;3.70;;;;;;;;;;4992228;28;20218;-80
2023/12/12 06:15:20;;;;;;;9.83;3.57;;;;;;;;;;4992023;28;20192;-80
2023/12/12 06:17:47;;;;;;;11.50;3.97;;;;;;;;;;4975704;28;20199;-81
2023/12/12 06:20:13;;;;;;;10.23;3.87;;;;;;;;;;4991757;28;20679;-81
2023/12/12 06:22:40;;;;;;;10.07;4.00;;;;;;;;;;4992126;28;20616;-81
2023/12/12 06:25:06;;;;;;;13.07;3.93;;;;;;;;;;4975194;28;20196;-80
2023/12/12 06:27:33;;;;;;;14.30;4.40;;;;;;;;;;4991229;28;20656;-80
2023/12/12 06:29:59;;;;;;;12.30;4.10;;;;;;;;;;4975762;28;20224;-80
2023/12/12 06:32:25;;;;;;;11.93;4.00;;;;;;;;;;4992039;28;20663;-80
2023/12/12 06:34:51;;;;;;;11.23;3.90;;;;;;;;;;4993083;28;20180;-81
2023/12/12 06:37:17;;;;;;;15.57;4.63;;;;;;;;;;4991614;28;20189;-81
2023/12/12 06:39:43;;;;;;;11.97;4.07;;;;;;;;;;4990557;28;20258;-81
2023/12/12 06:42:10;;;;;;;11.80;4.03;;;;;;;;;;4975572;28;20299;-81
2023/12/12 06:44:37;;;;;;;12.07;4.00;;;;;;;;;;4975366;28;20213;-81
2023/12/12 06:47:03;;;;;;;13.20;4.37;;;;;;;;;;4992524;28;20183;-81
2023/12/12 06:49:30;;;;;;;14.30;4.30;;;;;;;;;;4974833;28;20420;-81
2023/12/12 06:51:56;;;;;;;15.10;4.00;;;;;;;;;;4991305;28;20472;-81
2023/12/12 06:54:22;;;;;;;11.57;3.90;;;;;;;;;;4969004;28;20192;-81
2023/12/12 06:56:48;;;;;;;11.77;3.80;;;;;;;;;;4973688;28;20298;-81
2023/12/12 06:59:14;;;;;;;14.57;3.83;;;;;;;;;;4989890;28;20260;-81
2023/12/12 07:01:40;;;;;;;10.23;3.90;;;;;;;;;;4980763;28;20188;-77
2023/12/12 07:04:06;;;;;;;14.87;4.20;;;;;;;;;;4986768;28;20207;-81
2023/12/12 07:06:32;;;;;;;12.87;4.27;;;;;;;;;;5006016;28;20176;-76
2023/12/12 07:08:59;;;;;;;14.13;4.40;;;;;;;;;;4991941;28;20211;-79
2023/12/12 07:11:25;;;;;;;9.67;3.73;;;;;;;;;;4992174;28;20266;-76
2023/12/12 07:13:51;;;;;;;12.43;4.20;;;;;;;;;;4992651;28;20214;-76
2023/12/12 07:16:18;;;;;;;9.40;3.97;;;;;;;;;;4992744;28;20266;-79
2023/12/12 07:18:44;;;;;;;10.73;4.10;;;;;;;;;;4990117;28;20212;-75
2023/12/12 07:21:10;;;;;;;11.90;4.03;;;;;;;;;;4989610;28;20238;-75
2023/12/12 07:23:36;;;;;;;8.17;3.97;;;;;;;;;;4980904;28;20316;-76
2023/12/12 07:26:03;;;;;;;10.97;4.10;;;;;;;;;;4987400;28;20194;-76
2023/12/12 07:28:29;;;;;;;10.87;4.47;;;;;;;;;;4987978;28;20713;-76
2023/12/12 07:30:55;;;;;;;14.70;5.03;;;;;;;;;;4989056;28;20203;-75
2023/12/12 07:33:21;;;;;;;9.83;4.47;;;;;;;;;;4971089;28;20751;-76
2023/12/12 07:35:48;;;;;;;13.97;5.10;;;;;;;;;;4987157;28;20207;-76
2023/12/12 07:38:16;;;;;;;13.80;4.83;;;;;;;;;;4984090;28;20215;-76
2023/12/12 07:40:43;;;;;;;10.87;4.77;;;;;;;;;;4987376;28;20183;-76
2023/12/12 07:43:10;;;;;;;12.53;4.77;;;;;;;;;;4988051;28;20183;-76
2023/12/12 07:45:36;;;;;;;13.83;5.00;;;;;;;;;;4987575;28;20262;-76
2023/12/12 07:48:03;;;;;;;14.70;5.03;;;;;;;;;;4988960;28;20188;-76
2023/12/12 07:50:29;;;;;;;12.23;4.57;;;;;;;;;;4986871;28;20295;-76
2023/12/12 07:52:55;;;;;;;13.70;4.70;;;;;;;;;;4987207;28;20223;-76
2023/12/12 07:55:21;;;;;;;12.83;4.60;;;;;;;;;;4971537;28;20461;-76
2023/12/12 07:57:47;;;;;;;16.23;5.03;;;;;;;;;;4987489;28;20172;-76
2023/12/12 08:00:14;;;;;;;16.13;4.17;;;;;;;;;;4986668;28;20625;-76
2023/12/12 08:02:40;;;;;;;14.87;4.03;;;;;;;;;;4987357;28;20266;-75
2023/12/12 08:05:06;;;;;;;15.80;4.90;;;;;;;;;;4987573;28;20215;-76
2023/12/12 08:07:32;;;;;;;11.93;4.57;;;;;;;;;;4984976;28;20669;-76
2023/12/12 08:09:59;;;;;;;14.43;4.33;;;;;;;;;;4987922;28;20207;-76
2023/12/12 08:12:25;;;;;;;17.27;5.10;;;;;;;;;;4987281;28;20279;-76
2023/12/12 08:14:55;;;;;;;11.43;4.50;;;;;;;;;;4987069;28;20259;-76
2023/12/12 08:17:21;;;;;;;15.70;5.33;;;;;;;;;;4986147;28;20180;-76
2023/12/12 08:19:47;;;;;;;15.10;6.33;;;;;;;;;;4987526;28;20196;-75
2023/12/12 08:22:14;;;;;;;10.33;4.63;;;;;;;;;;4988411;28;20254;-75
2023/12/12 08:24:41;;;;;;;15.13;5.00;;;;;;;;;;4987901;28;20195;-75
2023/12/12 08:27:07;;;;;;;14.00;4.23;;;;;;;;;;4988469;28;20180;-76
2023/12/12 08:29:33;;;;;;;14.40;4.00;;;;;;;;;;4987077;28;20199;-75
2023/12/12 08:31:59;;;;;;;13.27;4.57;;;;;;;;;;4988453;28;20186;-76
2023/12/12 08:34:26;;;;;;;15.73;4.33;;;;;;;;;;4971119;28;20184;-76
2023/12/12 08:36:52;;;;;;;12.13;3.97;;;;;;;;;;4986892;28;20694;-75
2023/12/12 08:39:18;;;;;;;9.20;3.40;;;;;;;;;;4987974;28;20211;-76
2023/12/12 08:41:44;;;;;;;12.93;3.50;;;;;;;;;;4986809;28;20271;-76
2023/12/12 08:44:11;;;;;;;8.83;3.20;;;;;;;;;;4988444;28;20188;-75
2023/12/12 08:46:37;;;;;;;10.73;3.67;;;;;;;;;;4988408;28;20191;-75
2023/12/12 08:49:06;;;;;;;10.10;3.10;;;;;;;;;;4986824;28;20246;-76
2023/12/12 08:51:34;;;;;;;6.60;3.00;;;;;;;;;;4991472;28;20179;-75
2023/12/12 08:54:04;;;;;;;7.10;2.80;;;;;;;;;;4990608;28;20210;-75
2023/12/12 08:56:30;;;;;;;7.33;2.97;;;;;;;;;;4992143;28;20183;-75
2023/12/12 08:58:57;;;;;;;7.17;3.00;;;;;;;;;;4991697;28;20198;-75
2023/12/12 09:01:23;;;;;;;5.90;2.70;;;;;;;;;;4991189;28;20183;-76
2023/12/12 09:03:49;;;;;;;7.30;2.80;;;;;;;;;;4991684;28;20775;-75
2023/12/12 09:06:15;;;;;;;5.37;2.60;;;;;;;;;;4991578;28;20620;-75
2023/12/12 09:08:42;;;;;;;7.17;2.20;;;;;;;;;;4989369;28;20226;-75
2023/12/12 09:11:11;;;;;;;5.37;2.50;;;;;;;;;;4990026;28;20283;-76
2023/12/12 09:13:38;;;;;;;5.63;2.30;;;;;;;;;;4989629;28;20545;-75
2023/12/12 09:16:04;;;;;;;6.20;2.50;;;;;;;;;;4991425;28;20180;-75
2023/12/12 09:18:31;;;;;;;6.07;2.40;;;;;;;;;;4991189;28;20262;-75
2023/12/12 09:20:57;;;;;;;7.80;2.40;;;;;;;;;;4988078;28;20208;-75
2023/12/12 09:23:27;;;;;;;8.23;2.43;;;;;;;;;;4973377;28;20204;-75
2023/12/12 09:25:54;;;;;;;7.60;2.33;;;;;;;;;;4991134;28;20317;-75
2023/12/12 09:28:21;;;;;;;6.83;2.80;;;;;;;;;;4991679;28;20242;-81
2023/12/12 09:30:47;;;;;;;4.90;2.40;;;;;;;;;;4991846;28;20191;-75
2023/12/12 09:33:13;;;;;;;5.57;2.30;;;;;;;;;;4992930;28;20223;-78
2023/12/12 09:35:39;;;;;;;6.13;2.40;;;;;;;;;;4991726;28;20238;-76
2023/12/12 09:38:05;;;;;;;4.17;2.20;;;;;;;;;;4991991;28;20246;-76
2023/12/12 09:40:34;;;;;;;4.17;2.23;;;;;;;;;;4990286;28;20243;-76
2023/12/12 09:43:03;;;;;;;3.70;2.10;;;;;;;;;;4989775;28;20183;-76
2023/12/12 09:45:31;;;;;;;4.63;2.37;;;;;;;;;;4989860;28;20192;-78
2023/12/12 09:47:58;;;;;;;4.43;2.40;;;;;;;;;;4972032;28;20188;-76
2023/12/12 09:50:26;;;;;;;4.43;2.37;;;;;;;;;;4989696;28;20616;-76
2023/12/12 09:52:53;;;;;;;2.77;1.90;;;;;;;;;;4987585;28;20220;-76
2023/12/12 09:55:23;;;;;;;4.20;2.43;;;;;;;;;;4988588;28;20718;-76
2023/12/12 09:57:50;;;;;;;3.47;2.10;;;;;;;;;;4987834;28;20230;-76
2023/12/12 10:00:18;;;;;;;4.60;2.23;;;;;;;;;;4986985;28;20237;-76
2023/12/12 10:02:44;;;;;;;3.17;2.10;;;;;;;;;;4970211;28;20365;-77
2023/12/12 10:05:10;;;;;;;3.13;2.50;;;;;;;;;;4988669;28;20243;-76
2023/12/12 10:07:37;;;;;;;4.33;2.47;;;;;;;;;;5004578;28;20644;-76
2023/12/12 10:10:10;;;;;;;5.10;2.63;;;;;;;;;;4988792;28;20196;-76
2023/12/12 10:12:36;;;;;;;5.13;2.73;;;;;;;;;;4989319;28;20211;-76
2023/12/12 10:15:02;;;;;;;6.13;2.93;;;;;;;;;;4989965;28;20187;-76
2023/12/12 10:17:38;;;;;;;7.33;3.30;;;;;;;;;;4989649;28;20723;-76
2023/12/12 10:20:05;;;;;;;9.07;3.33;;;;;;;;;;4990249;28;20200;-76
2023/12/12 10:22:31;;;;;;;8.17;3.47;;;;;;;;;;4972348;28;20184;-77
2023/12/12 10:25:16;;;;;;;8.17;3.40;;;;;;;;;;4989447;28;20258;-75
2023/12/12 10:27:42;;;;;;;9.17;3.27;;;;;;;;;;4989257;28;20619;-76
2023/12/12 10:30:10;;;;;;;10.90;4.07;;;;;;;;;;4972593;28;20334;-76
2023/12/12 10:32:37;;;;;;;11.07;3.80;;;;;;;;;;4988714;28;20220;-77
2023/12/12 10:35:04;;;;;;;10.93;3.50;;;;;;;;;;4987837;28;20267;-76
2023/12/12 10:37:30;;;;;;;9.33;3.60;;;;;;;;;;4988117;28;20196;-76
2023/12/12 10:40:11;;;;;;;7.47;3.10;;;;;;;;;;4987362;28;20207;-76
2023/12/12 10:42:37;;;;;;;6.73;3.40;;;;;;;;;;4973025;28;20200;-76
2023/12/12 10:45:05;;;;;;;4.53;2.83;;;;;;;;;;4990313;28;20246;-76
2023/12/12 10:47:31;;;;;;;6.53;3.00;;;;;;;;;;4989632;28;20668;-76
2023/12/12 10:50:02;;;;;;;4.30;2.60;;;;;;;;;;4987988;28;20238;-76
2023/12/12 10:52:33;;;;;;;4.10;2.77;;;;;;;;;;4989538;28;20251;-76
2023/12/12 10:54:59;;;;;;;5.57;2.50;;;;;;;;;;4988438;28;20183;-76
2023/12/12 10:57:26;;;;;;;4.47;2.40;;;;;;;;;;4972660;28;20184;-76
2023/12/12 10:59:54;;;;;;;3.33;2.40;;;;;;;;;;4988884;28;20199;-76
2023/12/12 11:02:20;;;;;;;4.23;2.43;;;;;;;;;;4989422;28;20751;-76
2023/12/12 11:04:47;;;;;;;3.53;2.43;;;;;;;;;;4988262;28;20195;-76
2023/12/12 11:07:13;;;;;;;2.93;1.77;;;;;;;;;;4988768;28;20215;-76
2023/12/12 11:09:39;;;;;;;4.47;2.20;;;;;;;;;;4987142;28;20231;-76
2023/12/12 11:12:06;;;;;;;3.83;2.10;;;;;;;;;;4987952;28;20660;-76
2023/12/12 11:14:33;;;;;;;4.17;2.13;;;;;;;;;;4987396;28;20667;-76
2023/12/12 11:16:59;;;;;;;3.60;2.20;;;;;;;;;;4987731;28;20191;-76
2023/12/12 11:19:26;;;;;;;3.47;2.00;;;;;;;;;;4988425;28;20216;-76
2023/12/12 11:21:52;;;;;;;3.77;2.30;;;;;;;;;;4983716;28;20198;-76
2023/12/12 11:24:20;;;;;;;4.83;2.20;;;;;;;;;;4986535;28;20202;-76
2023/12/12 11:26:47;;;;;;;3.80;1.90;;;;;;;;;;4979561;28;20192;-78
2023/12/12 11:29:15;;;;;;;3.17;1.73;;;;;;;;;;4984059;28;20215;-77
2023/12/12 11:31:59;;;;;;;3.93;2.10;;;;;;;;;;4983535;28;20282;-76
2023/12/12 11:34:26;;;;;;;5.33;2.40;;;;;;;;;;4987741;28;20220;-76
2023/12/12 11:36:57;;;;;;;5.50;2.87;;;;;;;;;;4988977;28;20195;-76
2023/12/12 11:39:29;;;;;;;3.33;2.00;;;;;;;;;;4986881;28;20561;-76
2023/12/12 11:41:59;;;;;;;6.57;2.80;;;;;;;;;;4989230;28;20750;-77
2023/12/12 11:44:25;;;;;;;4.00;2.27;;;;;;;;;;4989039;28;20192;-78
2023/12/12 11:46:53;;;;;;;4.87;2.30;;;;;;;;;;4973209;28;20191;-80
2023/12/12 11:49:20;;;;;;;5.37;2.50;;;;;;;;;;4972510;28;20203;-78
2023/12/12 11:51:48;;;;;;;6.17;2.70;;;;;;;;;;4989027;28;20192;-75
2023/12/12 11:54:21;;;;;;;4.33;2.40;;;;;;;;;;4988070;28;20262;-74
2023/12/12 11:56:48;;;;;;;7.03;2.60;;;;;;;;;;4987105;28;20187;-75
2023/12/12 11:59:21;;;;;;;7.03;2.90;;;;;;;;;;4986885;28;20587;-77
2023/12/12 12:01:47;;;;;;;3.30;2.50;;;;;;;;;;4987063;28;20555;-73
2023/12/12 12:04:13;;;;;;;5.43;2.80;;;;;;;;;;4987326;28;20262;-77
2023/12/12 12:06:39;;;;;;;4.93;2.50;;;;;;;;;;4988475;28;20211;-77
2023/12/12 12:09:07;;;;;;;3.77;2.57;;;;;;;;;;4986685;28;20208;-78
2023/12/12 12:11:37;;;;;;;4.10;2.97;;;;;;;;;;4988032;28;20187;-78
2023/12/12 12:14:03;;;;;;;6.30;4.20;;;;;;;;;;4989589;28;20235;-77
2023/12/12 12:16:29;;;;;;;6.27;3.50;;;;;;;;;;4986928;28;20184;-78
2023/12/12 12:18:55;;;;;;;4.80;3.33;;;;;;;;;;4986433;28;20242;-78
2023/12/12 12:21:25;;;;;;;5.90;3.20;;;;;;;;;;4987494;28;20206;-78
2023/12/12 12:23:51;;;;;;;8.83;5.83;;;;;;;;;;4986650;28;20180;-77
2023/12/12 12:26:17;;;;;;;7.90;4.53;;;;;;;;;;4985434;28;20187;-77
2023/12/12 12:28:44;;;;;;;4.80;3.30;;;;;;;;;;4987474;28;20196;-77
2023/12/12 12:31:10;;;;;;;7.23;3.80;;;;;;;;;;4987214;28;20191;-76
2023/12/12 12:33:37;;;;;;;5.50;2.80;;;;;;;;;;4967644;28;20215;-73
2023/12/12 12:36:04;;;;;;;5.37;3.20;;;;;;;;;;4988860;28;20190;-73
2023/12/12 12:38:31;;;;;;;6.00;4.00;;;;;;;;;;4986686;28;20204;-73
2023/12/12 12:40:57;;;;;;;11.13;6.73;;;;;;;;;;4987961;28;20312;-73
2023/12/12 12:43:24;;;;;;;12.00;8.90;;;;;;;;;;4987131;28;20192;-74
2023/12/12 12:45:51;;;;;;;4.67;3.87;;;;;;;;;;4985828;28;20187;-74
2023/12/12 12:48:17;;;;;;;5.93;2.80;;;;;;;;;;4985774;28;20266;-73
2023/12/12 12:50:44;;;;;;;3.40;2.40;;;;;;;;;;4988485;28;20337;-74
2023/12/12 12:53:10;;;;;;;3.17;2.00;;;;;;;;;;4987820;28;20208;-74
2023/12/12 12:55:38;;;;;;;2.60;2.13;;;;;;;;;;4987827;28;20500;-74
2023/12/12 12:58:05;;;;;;;4.00;2.10;;;;;;;;;;4987907;28;20234;-74
2023/12/12 13:00:31;;;;;;;5.10;2.60;;;;;;;;;;4988604;28;20218;-74
2023/12/12 13:02:57;;;;;;;2.80;2.47;;;;;;;;;;4987239;28;20180;-74
2023/12/12 13:05:25;;;;;;;10.93;8.03;;;;;;;;;;4987341;28;20188;-74
2023/12/12 13:07:53;;;;;;;6.77;4.80;;;;;;;;;;4985399;28;20190;-74
2023/12/12 13:10:19;;;;;;;4.00;3.53;;;;;;;;;;4984888;28;20587;-74
2023/12/12 13:12:45;;;;;;;2.90;2.40;;;;;;;;;;4987815;28;20627;-74
2023/12/12 13:15:11;;;;;;;3.07;2.23;;;;;;;;;;4971216;28;20220;-74
2023/12/12 13:17:38;;;;;;;3.63;2.40;;;;;;;;;;4988044;28;20652;-73
2023/12/12 13:20:11;;;;;;;2.43;2.23;;;;;;;;;;4987939;28;20805;-74
2023/12/12 13:22:41;;;;;;;3.50;2.90;;;;;;;;;;4987049;28;20201;-74
2023/12/12 13:25:11;;;;;;;4.40;2.30;;;;;;;;;;4987862;28;20201;-75
2023/12/12 13:27:38;;;;;;;4.03;2.30;;;;;;;;;;4985591;28;20566;-75
2023/12/12 13:30:09;;;;;;;2.63;2.40;;;;;;;;;;4989417;28;20206;-74
2023/12/12 13:32:40;;;;;;;3.90;2.60;;;;;;;;;;4969863;28;20222;-74
2023/12/12 13:35:07;;;;;;;2.60;2.30;;;;;;;;;;4988752;28;20247;-73
2023/12/12 13:37:35;;;;;;;3.00;2.70;;;;;;;;;;4991834;28;20192;-74
2023/12/12 13:40:01;;;;;;;3.17;2.77;;;;;;;;;;4990428;28;20219;-74
2023/12/12 13:42:27;;;;;;;3.50;2.60;;;;;;;;;;4990271;28;20280;-74
2023/12/12 13:44:54;;;;;;;5.00;3.50;;;;;;;;;;4989533;28;20192;-74
2023/12/12 13:47:20;;;;;;;6.87;3.90;;;;;;;;;;4990797;28;20275;-74
2023/12/12 13:49:46;;;;;;;4.63;2.93;;;;;;;;;;4991174;28;20210;-72
2023/12/12 13:52:13;;;;;;;5.27;3.47;;;;;;;;;;4991457;28;20644;-73
2023/12/12 13:54:39;;;;;;;4.70;3.07;;;;;;;;;;4989582;28;20180;-72
2023/12/12 13:57:07;;;;;;;8.97;3.90;;;;;;;;;;4991273;28;20199;-74
2023/12/12 13:59:34;;;;;;;5.03;3.37;;;;;;;;;;4990165;28;20207;-72
2023/12/12 14:02:00;;;;;;;5.53;3.50;;;;;;;;;;4988423;28;20542;-72
2023/12/12 14:04:26;;;;;;;5.10;3.60;;;;;;;;;;4987915;28;20188;-72
2023/12/12 14:06:52;;;;;;;5.67;3.30;;;;;;;;;;4990022;28;20196;-72
2023/12/12 14:09:19;;;;;;;6.80;4.10;;;;;;;;;;4990280;28;20204;-72
2023/12/12 14:11:45;;;;;;;6.90;4.60;;;;;;;;;;4990657;28;20183;-72
2023/12/12 14:14:11;;;;;;;7.17;4.50;;;;;;;;;;4990023;28;20250;-72
2023/12/12 14:16:39;;;;;;;6.63;4.27;;;;;;;;;;4989263;28;20494;-74
2023/12/12 14:19:06;;;;;;;7.87;4.50;;;;;;;;;;4989491;28;20303;-72
2023/12/12 14:21:32;;;;;;;6.87;4.40;;;;;;;;;;4989260;28;21134;-72
2023/12/12 14:23:58;;;;;;;4.90;4.27;;;;;;;;;;4989170;28;20193;-72
2023/12/12 14:26:25;;;;;;;7.33;4.23;;;;;;;;;;4989640;28;20242;-72
2023/12/12 14:28:54;;;;;;;7.40;5.70;;;;;;;;;;4987785;28;20219;-72
2023/12/12 14:31:21;;;;;;;8.17;5.50;;;;;;;;;;4989987;28;20662;-72
2023/12/12 14:33:47;;;;;;;5.60;5.00;;;;;;;;;;4988735;28;20691;-72